ADDS METAR Data INFO
IDs: Format: Raw Decoded Include TAF

Data at: 1957 UTC 15 Dec 2017

KAQR 151935Z AUTO 30005KT 10SM CLR 10/M03 A3024 RMK AO2
KAQR 151915Z AUTO 00000KT 10SM CLR 10/M04 A3024 RMK AO2
KAQR 151855Z AUTO 32007KT 10SM SCT043 10/M03 A3025 RMK AO2
KAQR 151835Z AUTO 29005KT 10SM SCT043 10/M02 A3026 RMK AO2
KAQR 151815Z AUTO 27004KT 10SM CLR 09/M02 A3027 RMK AO2
KAQR 151755Z AUTO 33005KT 250V010 10SM CLR 09/M01 A3028 RMK AO2
KAQR 151735Z AUTO 01005KT 10SM CLR 08/M01 A3029 RMK AO2
KAQR 151715Z AUTO 32005KT 10SM CLR 08/00 A3030 RMK AO2
KAQR 151655Z AUTO 35004KT 10SM CLR 07/00 A3031 RMK AO2
KAQR 151635Z AUTO 35008KT 10SM CLR 06/00 A3031 RMK AO2
KAQR 151615Z AUTO 36004KT 10SM CLR 06/00 A3031 RMK AO2
KAQR 151555Z AUTO 02004KT 10SM CLR 04/00 A3031 RMK AO2
KAQR 151535Z AUTO 34004KT 10SM CLR 03/M01 A3031 RMK AO2
KAQR 151515Z AUTO 00000KT 10SM CLR 02/M01 A3031 RMK AO2
KAQR 151455Z AUTO 00000KT 10SM CLR 01/M01 A3030 RMK AO2
KAQR 151435Z AUTO 00000KT 10SM CLR M01/M02 A3028 RMK AO2
KAQR 151415Z AUTO 00000KT 7SM CLR M01/M02 A3029 RMK AO2
KAQR 151355Z AUTO 00000KT 10SM CLR M02/M02 A3029 RMK AO2
KAQR 151335Z AUTO 00000KT 10SM CLR M05/M05 A3028 RMK AO2
KAQR 151315Z AUTO 00000KT 10SM CLR M05/M06 A3028 RMK AO2
KAQR 151255Z AUTO 33003KT 10SM CLR M03/M04 A3028 RMK AO2
KAQR 151235Z AUTO 00000KT 10SM CLR M03/M04 A3027 RMK AO2
KAQR 151215Z AUTO 00000KT 10SM CLR M05/M05 A3027 RMK AO2
KAQR 151155Z AUTO 00000KT 10SM CLR M05/M05 A3026 RMK AO2
KAQR 151135Z AUTO 00000KT 10SM CLR M04/M05 A3025 RMK AO2
KAQR 151115Z AUTO 00000KT 10SM CLR M05/M05 A3025 RMK AO2
KAQR 151055Z AUTO 00000KT 10SM CLR M04/M06 A3024 RMK AO2
KAQR 151035Z AUTO 00000KT 10SM CLR M04/M06 A3024 RMK AO2
KAQR 151015Z AUTO 00000KT 10SM CLR M04/M06 A3024 RMK AO2
KAQR 150955Z AUTO 00000KT 10SM CLR M03/M06 A3024 RMK AO2
KAQR 150935Z AUTO 00000KT 10SM CLR M04/M05 A3024 RMK AO2
KAQR 150915Z AUTO 00000KT 10SM CLR M04/M05 A3023 RMK AO2
KAQR 150855Z AUTO 00000KT 10SM CLR M04/M05 A3024 RMK AO2
KAQR 150835Z AUTO 00000KT 10SM CLR M03/M06 A3023 RMK AO2
KAQR 150815Z AUTO 00000KT 10SM CLR M03/M06 A3023 RMK AO2
KAQR 150755Z AUTO 00000KT 10SM CLR M03/M06 A3022 RMK AO2
KAQR 150735Z AUTO 00000KT 10SM CLR M03/M06 A3022 RMK AO2
KAQR 150715Z AUTO 00000KT 10SM CLR M02/M06 A3022 RMK AO2
KAQR 150655Z AUTO 00000KT 10SM CLR M02/M05 A3022 RMK AO2
KAQR 150635Z AUTO 00000KT 10SM CLR M02/M05 A3022 RMK AO2
KAQR 150615Z AUTO 00000KT 10SM CLR M02/M05 A3023 RMK AO2
KAQR 150555Z AUTO 00000KT 10SM CLR M02/M05 A3023 RMK AO2
KAQR 150535Z AUTO 00000KT 10SM CLR M01/M05 A3023 RMK AO2
KAQR 150515Z AUTO 00000KT 10SM CLR M02/M05 A3023 RMK AO2
KAQR 150455Z AUTO 00000KT 10SM CLR M01/M04 A3022 RMK AO2
KAQR 150435Z AUTO 00000KT 10SM CLR 00/M05 A3021 RMK AO2
KAQR 150415Z AUTO 00000KT 10SM CLR 00/M05 A3020 RMK AO2
KAQR 150355Z AUTO 00000KT 10SM CLR 00/M05 A3020 RMK AO2
KAQR 150335Z AUTO 00000KT 10SM CLR 00/M04 A3020 RMK AO2
KAQR 150315Z AUTO 00000KT 10SM CLR 00/M04 A3020 RMK AO2
KAQR 150255Z AUTO 00000KT 10SM CLR 01/M03 A3020 RMK AO2
KAQR 150235Z AUTO 00000KT 10SM CLR 01/M04 A3019 RMK AO2
KAQR 150215Z AUTO 00000KT 10SM CLR 03/M04 A3018 RMK AO2
KAQR 150155Z AUTO 00000KT 10SM CLR 01/M04 A3017 RMK AO2
KAQR 150135Z AUTO 00000KT 10SM CLR 03/M04 A3018 RMK AO2
KAQR 150115Z AUTO 33003KT 10SM CLR 03/M05 A3017 RMK AO2
KAQR 150055Z AUTO 00000KT 10SM CLR 05/M04 A3017 RMK AO2
KAQR 150035Z AUTO 00000KT 10SM CLR 06/M04 A3016 RMK AO2
KAQR 150015Z AUTO 35003KT 10SM CLR 07/M05 A3015 RMK AO2
KAQR 142355Z AUTO 36004KT 10SM CLR 07/M05 A3015 RMK AO2
KAQR 142335Z AUTO 36005KT 10SM CLR 08/M05 A3014 RMK AO2
KAQR 142315Z AUTO 36006KT 10SM CLR 08/M05 A3014 RMK AO2
KAQR 142255Z AUTO 36008KT 10SM CLR 09/M05 A3013 RMK AO2
KAQR 142235Z AUTO 35009G15KT 10SM CLR 10/M05 A3012 RMK AO2
KAQR 142215Z AUTO 36008G15KT 10SM CLR 10/M05 A3011 RMK AO2
KAQR 142155Z AUTO 33012G18KT 310V010 10SM CLR 11/M05 A3011 RMK AO2
KAQR 142135Z AUTO 34009G18KT 310V010 10SM CLR 11/M05 A3010 RMK AO2
KAQR 142115Z AUTO 33013G17KT 10SM CLR 12/M04 A3009 RMK AO2
KAQR 142055Z AUTO 36011G16KT 10SM CLR 12/M04 A3008 RMK AO2
KAQR 142035Z AUTO 36011G18KT 10SM CLR 12/M04 A3008 RMK AO2
KAQR 142015Z AUTO 35012G17KT 10SM CLR 12/M03 A3008 RMK AO2
KAQR 141955Z AUTO 34009G14KT 10SM CLR 12/M03 A3009 RMK AO2
KAQR 141935Z AUTO 01007G14KT 10SM CLR 12/M03 A3009 RMK AO2
KAQR 141915Z AUTO 36008G15KT 10SM CLR 12/M03 A3010 RMK AO2
KAQR 141855Z AUTO 36006G15KT 10SM CLR 12/M03 A3011 RMK AO2
KAQR 141835Z AUTO 01008G15KT 10SM CLR 11/M03 A3011 RMK AO2
KAQR 141815Z AUTO 01010KT 10SM CLR 11/M03 A3012 RMK AO2
KAQR 141755Z AUTO 01010KT 10SM CLR 11/M02 A3013 RMK AO2
KAQR 141735Z AUTO 03007G15KT 10SM CLR 11/M02 A3014 RMK AO2
KAQR 141715Z AUTO 04008G14KT 10SM CLR 11/M02 A3014 RMK AO2
KAQR 141655Z AUTO 05009KT 10SM CLR 10/M02 A3014 RMK AO2
KAQR 141635Z AUTO 05010G15KT 10SM CLR 10/M02 A3014 RMK AO2
KAQR 141615Z AUTO 02007KT 10SM CLR 09/M01 A3014 RMK AO2
KAQR 141555Z AUTO 04007KT 10SM CLR 08/M01 A3014 RMK AO2
KAQR 141535Z AUTO 04009G15KT 10SM CLR 07/M02 A3012 RMK AO2
KAQR 141515Z AUTO 01006KT 10SM CLR 07/M02 A3011 RMK AO2
KAQR 141455Z AUTO 01003KT 10SM CLR 05/M02 A3011 RMK AO2
KAQR 141435Z AUTO 00000KT 10SM CLR 03/M03 A3010 RMK AO2
KAQR 141415Z AUTO 00000KT 10SM CLR 01/M03 A3010 RMK AO2
KAQR 141355Z AUTO 00000KT 10SM CLR 00/M04 A3009 RMK AO2
KAQR 141335Z AUTO 00000KT 10SM CLR 00/M04 A3008 RMK AO2
KAQR 141315Z AUTO 00000KT 10SM CLR 01/M04 A3007 RMK AO2
KAQR 141255Z AUTO 00000KT 10SM CLR 03/M04 A3005 RMK AO2
KAQR 141235Z AUTO 35003KT 10SM CLR 03/M04 A3003 RMK AO2
KAQR 141215Z AUTO 36004KT 10SM CLR 03/M04 A3002 RMK AO2
KAQR 141155Z AUTO 35004KT 10SM CLR 04/M04 A3001 RMK AO2
KAQR 141135Z AUTO 36004KT 10SM CLR 05/M04 A3000 RMK AO2
KAQR 141115Z AUTO 01004KT 10SM CLR 05/M04 A2998 RMK AO2
KAQR 141055Z AUTO 36006KT 10SM CLR 05/M04 A2997 RMK AO2
KAQR 141035Z AUTO 36007KT 10SM CLR 05/M04 A2996 RMK AO2
KAQR 141015Z AUTO 02005KT 10SM CLR 05/M04 A2995 RMK AO2
KAQR 140955Z AUTO 02005KT 10SM CLR 05/M04 A2995 RMK AO2
KAQR 140935Z AUTO 01006KT 10SM CLR 05/M04 A2994 RMK AO2
KAQR 140915Z AUTO 01003KT 10SM CLR 03/M05 A2993 RMK AO2
KAQR 140855Z AUTO 36006KT 10SM CLR 02/M05 A2993 RMK AO2
KAQR 140835Z AUTO 34004KT 10SM CLR 00/M04 A2993 RMK AO2
KAQR 140815Z AUTO 00000KT 10SM CLR 00/M05 A2993 RMK AO2